createdAt,value
2022-08-07T00:00:39.769Z,99949.13
2022-08-07T00:03:08.618Z,99943.75
2022-08-07T00:05:39.959Z,99944.53
2022-08-07T00:08:09.663Z,99947.66
2022-08-07T00:10:48.038Z,99953.53
2022-08-07T00:13:26.665Z,99948.41
2022-08-07T00:15:57.289Z,99959.41
2022-08-07T00:18:27.711Z,99952.34
2022-08-07T00:21:01.926Z,99942.88
2022-08-07T00:23:31.591Z,99942.94
2022-08-07T00:26:12.835Z,99944.50
2022-08-07T00:28:56.445Z,99944.81
2022-08-07T00:31:37.965Z,99938.53
2022-08-07T00:34:09.421Z,99938.94
2022-08-07T00:36:43.314Z,99934.66
2022-08-07T00:39:16.491Z,99923.81
2022-08-07T00:41:53.425Z,99921.84
2022-08-07T00:44:31.336Z,99917.13
2022-08-07T00:47:16.120Z,99916.25
2022-08-07T00:50:21.325Z,99924.06
2022-08-07T00:52:48.473Z,99934.22
2022-08-07T00:55:17.498Z,99924.81
2022-08-07T00:58:12.195Z,99926.38
2022-08-07T01:00:39.539Z,99926.38
2022-08-07T01:03:25.475Z,99931.88
2022-08-07T01:06:08.803Z,99932.59
2022-08-07T01:08:36.076Z,99936.91
2022-08-07T01:12:23.798Z,99934.56
2022-08-07T01:14:02.150Z,99933.72
2022-08-07T01:16:30.373Z,99934.91
2022-08-07T01:18:58.345Z,99939.59
2022-08-07T01:21:26.277Z,99940.41
2022-08-07T01:23:57.436Z,99943.56
2022-08-07T01:26:28.142Z,99946.13
2022-08-07T01:28:58.837Z,99946.72
2022-08-07T01:31:41.639Z,99950.63
2022-08-07T01:34:13.629Z,99943.16
2022-08-07T01:36:44.087Z,99952.19
2022-08-07T01:39:11.875Z,99944.91
2022-08-07T01:42:07.371Z,99946.44
2022-08-07T01:44:34.361Z,99948.66
2022-08-07T01:47:14.651Z,99953.44
2022-08-07T01:49:56.663Z,99954.22
2022-08-07T01:52:26.615Z,99955.72
2022-08-07T01:54:54.978Z,99949.59
2022-08-07T01:57:28.577Z,99948.84
2022-08-07T02:00:04.317Z,99957.09
2022-08-07T02:03:11.699Z,99957.38
2022-08-07T02:05:59.390Z,99973.03
2022-08-07T02:08:33.658Z,99976.84
2022-08-07T02:11:10.374Z,99989.31
2022-08-07T02:13:56.533Z,100008.56
2022-08-07T02:16:33.713Z,100016.66
2022-08-07T02:20:07.817Z,100015.81
2022-08-07T02:21:58.574Z,100021.38
2022-08-07T02:24:29.401Z,100023.00
2022-08-07T02:27:01.225Z,100013.94
2022-08-07T02:29:29.451Z,100015.00
2022-08-07T02:31:59.840Z,100010.59
2022-08-07T02:34:31.094Z,100015.78
2022-08-07T02:37:02.114Z,99997.81
2022-08-07T02:40:11.880Z,99988.69
2022-08-07T02:42:33.398Z,99983.09
2022-08-07T02:45:07.608Z,99982.78
2022-08-07T02:47:50.373Z,99965.56
2022-08-07T02:50:21.075Z,99952.34
2022-08-07T02:53:10.909Z,99948.19
2022-08-07T02:56:03.251Z,99945.72
2022-08-07T02:58:33.224Z,99938.03
2022-08-07T03:01:10.380Z,99941.59
2022-08-07T03:03:49.715Z,99942.50
2022-08-07T03:06:25.833Z,99937.88
2022-08-07T03:09:04.805Z,99940.16
2022-08-07T03:11:38.362Z,99933.59
2022-08-07T03:14:06.940Z,99944.03
2022-08-07T03:16:34.828Z,99939.91
2022-08-07T03:19:02.436Z,99942.72
2022-08-07T03:21:33.051Z,99943.31
2022-08-07T03:24:18.462Z,99944.59
2022-08-07T03:26:58.056Z,99947.50
2022-08-07T03:29:29.481Z,99956.66
2022-08-07T03:32:00.741Z,99959.28
2022-08-07T03:34:28.780Z,99955.34
2022-08-07T03:36:59.809Z,99970.47
2022-08-07T03:40:13.325Z,99963.44
2022-08-07T03:42:35.704Z,99968.03
2022-08-07T03:45:05.729Z,99964.44
2022-08-07T03:47:57.300Z,99963.34
2022-08-07T03:50:29.711Z,99958.50
2022-08-07T03:52:58.836Z,99960.09
2022-08-07T03:55:57.617Z,99969.88
2022-08-07T03:59:06.751Z,99969.59
2022-08-07T04:01:11.194Z,99960.75
2022-08-07T04:03:53.735Z,99972.28
2022-08-07T04:06:36.991Z,99970.56
2022-08-07T04:09:15.655Z,99970.19
2022-08-07T04:12:27.639Z,99974.75
2022-08-07T04:14:38.625Z,99970.75
2022-08-07T04:17:20.098Z,99975.88
2022-08-07T04:19:51.885Z,99974.72
2022-08-07T04:22:22.956Z,99974.44
2022-08-07T04:24:50.560Z,99980.28
2022-08-07T04:27:25.212Z,99981.66
2022-08-07T04:30:01.365Z,99981.88
2022-08-07T04:32:34.752Z,99984.50
2022-08-07T04:35:07.051Z,99986.81
2022-08-07T04:38:00.931Z,99986.44
2022-08-07T04:40:29.819Z,99994.28
2022-08-07T04:43:02.206Z,99993.13
2022-08-07T04:46:00.740Z,99988.94
2022-08-07T04:48:44.599Z,99995.69
2022-08-07T04:51:27.221Z,99995.63
2022-08-07T04:54:06.532Z,100002.97
2022-08-07T04:58:11.698Z,100003.38
2022-08-07T05:00:10.703Z,100002.53
2022-08-07T05:02:38.019Z,100004.84
2022-08-07T05:05:53.245Z,100000.94
2022-08-07T05:08:12.588Z,100009.63
2022-08-07T05:10:50.882Z,100009.38
2022-08-07T05:14:52.091Z,100011.31
2022-08-07T05:16:24.138Z,100015.31
2022-08-07T05:18:57.893Z,100020.00
2022-08-07T05:21:59.851Z,100021.59
2022-08-07T05:24:24.606Z,100024.78
2022-08-07T05:26:59.752Z,100031.06
2022-08-07T05:29:38.822Z,100030.75
2022-08-07T05:32:19.029Z,100033.50
2022-08-07T05:34:49.735Z,100042.94
2022-08-07T05:37:25.129Z,100048.41
2022-08-07T05:40:13.455Z,100054.81
2022-08-07T05:42:42.769Z,100052.53
2022-08-07T05:45:46.751Z,100055.69
2022-08-07T05:48:19.477Z,100064.63
2022-08-07T05:51:01.386Z,100060.59
2022-08-07T05:54:13.097Z,100061.63
2022-08-07T05:56:19.015Z,100064.56
2022-08-07T05:58:52.975Z,100080.81
2022-08-07T06:01:35.678Z,100078.88
2022-08-07T06:04:12.351Z,100081.53
2022-08-07T06:06:56.471Z,100083.63
2022-08-07T06:10:04.333Z,100081.78
2022-08-07T06:12:37.530Z,100084.38
2022-08-07T06:15:10.283Z,100077.41
2022-08-07T06:17:53.751Z,100073.88
2022-08-07T06:20:49.863Z,100065.72
2022-08-07T06:24:38.657Z,100072.13
2022-08-07T06:26:27.436Z,100078.41
2022-08-07T06:29:07.587Z,100072.91
2022-08-07T06:31:49.692Z,100072.94
2022-08-07T06:34:23.503Z,100071.00
2022-08-07T06:36:54.994Z,100074.50
2022-08-07T06:40:16.831Z,100090.25
2022-08-07T06:42:33.075Z,100081.19
2022-08-07T06:45:07.367Z,100076.47
2022-08-07T06:47:57.729Z,100076.88
2022-08-07T06:50:31.804Z,100075.31
2022-08-07T06:53:00.446Z,100084.75
2022-08-07T06:55:53.989Z,100072.16
2022-08-07T06:58:24.662Z,100077.66
2022-08-07T07:01:03.860Z,100078.00
2022-08-07T07:03:47.547Z,100077.53
2022-08-07T07:06:26.592Z,100072.00
2022-08-07T07:09:05.754Z,100074.25
2022-08-07T07:14:45.454Z,100067.97
2022-08-07T07:17:24.849Z,100059.19
2022-08-07T07:20:18.764Z,100060.28
2022-08-07T07:24:09.133Z,100066.22
2022-08-07T07:29:57.050Z,100070.44
2022-08-07T07:31:55.138Z,100070.19
2022-08-07T07:37:45.418Z,100077.47
2022-08-07T07:40:18.810Z,100082.97
2022-08-07T07:42:54.105Z,100078.47
2022-08-07T07:46:36.752Z,100089.06
2022-08-07T07:48:41.521Z,100083.34
2022-08-07T07:51:12.948Z,100082.41
2022-08-07T07:56:32.456Z,100071.66
2022-08-07T07:59:13.486Z,100077.09
2022-08-07T08:02:01.929Z,100074.75
2022-08-07T08:04:38.570Z,100074.06
2022-08-07T08:07:09.030Z,100065.81
2022-08-07T08:09:52.369Z,100063.44
2022-08-07T08:12:51.097Z,100064.47
2022-08-07T08:15:15.143Z,100057.13
2022-08-07T08:17:57.270Z,100072.81
2022-08-07T08:20:32.484Z,100070.63
2022-08-07T08:23:00.811Z,100070.38
2022-08-07T08:25:42.805Z,100068.47
2022-08-07T08:28:37.813Z,100066.91
2022-08-07T08:31:16.174Z,100070.72
2022-08-07T08:33:49.777Z,100065.75
2022-08-07T08:36:30.570Z,100073.41
2022-08-07T08:39:02.771Z,100061.63
2022-08-07T08:41:57.556Z,100065.00
2022-08-07T08:44:44.675Z,100059.41
2022-08-07T08:47:22.204Z,100065.63
2022-08-07T08:50:05.669Z,100056.00
2022-08-07T08:52:54.147Z,100051.44
2022-08-07T08:55:53.236Z,100053.59
2022-08-07T08:58:28.872Z,100051.19
2022-08-07T09:01:15.329Z,100052.47
2022-08-07T09:04:00.892Z,100050.34
2022-08-07T09:06:37.448Z,100036.84
2022-08-07T09:09:30.242Z,100048.19
2022-08-07T09:12:31.431Z,100048.13
2022-08-07T09:16:21.958Z,100047.94
2022-08-07T09:18:36.636Z,100050.13
2022-08-07T09:22:10.339Z,100044.06
2022-08-07T09:24:59.329Z,100046.22
2022-08-07T09:27:54.665Z,100045.63
2022-08-07T09:30:36.332Z,100044.66
2022-08-07T09:33:52.483Z,100043.50
2022-08-07T09:36:33.574Z,100037.16
2022-08-07T09:39:53.070Z,100036.31
2022-08-07T09:42:33.617Z,100029.94
2022-08-07T09:47:24.494Z,100025.91
2022-08-07T09:48:29.617Z,100031.38
2022-08-07T09:52:16.462Z,100025.81
2022-08-07T09:54:08.286Z,100025.13
2022-08-07T09:57:12.858Z,100027.88
2022-08-07T10:00:01.934Z,100027.75
2022-08-07T10:02:53.655Z,100020.34
2022-08-07T10:05:59.714Z,100030.09
2022-08-07T10:08:53.462Z,100019.53
2022-08-07T10:12:01.331Z,100014.13
2022-08-07T10:14:33.069Z,100013.34
2022-08-07T10:17:18.305Z,100005.84
2022-08-07T10:20:00.874Z,100006.31
2022-08-07T10:22:43.127Z,100005.47
2022-08-07T10:25:20.995Z,99995.69
2022-08-07T10:28:12.678Z,99989.28
2022-08-07T10:30:53.662Z,100008.84
2022-08-07T10:34:14.507Z,99991.94
2022-08-07T10:36:38.710Z,99992.59
2022-08-07T10:39:42.088Z,100001.41
2022-08-07T10:42:31.353Z,99981.78
2022-08-07T10:45:03.674Z,99987.44
2022-08-07T10:47:51.459Z,99988.16
2022-08-07T10:50:26.112Z,99974.28
2022-08-07T10:53:08.863Z,99979.75
2022-08-07T10:55:50.778Z,99974.47
2022-08-07T10:58:32.086Z,99977.44
2022-08-07T11:01:17.608Z,99977.00
2022-08-07T11:04:31.939Z,99975.47
2022-08-07T11:07:56.117Z,99966.28
2022-08-07T11:10:17.097Z,99959.19
2022-08-07T11:13:02.044Z,99956.13
2022-08-07T11:15:37.074Z,99958.19
2022-08-07T11:18:17.771Z,99952.97
2022-08-07T11:21:06.855Z,99954.63
2022-08-07T11:23:50.540Z,99946.38
2022-08-07T11:26:28.766Z,99944.56
2022-08-07T11:29:13.102Z,99934.69
2022-08-07T11:32:06.459Z,99931.88
2022-08-07T11:34:45.253Z,99922.78
2022-08-07T11:37:18.915Z,99922.38
2022-08-07T11:40:03.429Z,99917.94
2022-08-07T11:42:40.862Z,99922.88
2022-08-07T11:45:53.118Z,99921.25
2022-08-07T11:48:37.568Z,99928.97
2022-08-07T11:51:41.671Z,99924.47
2022-08-07T11:54:54.757Z,99920.72
2022-08-07T11:57:59.551Z,99911.25
2022-08-07T12:01:02.525Z,99903.22
2022-08-07T12:03:46.430Z,99902.47
2022-08-07T12:06:40.334Z,99892.34
2022-08-07T12:09:24.925Z,99900.00
2022-08-07T12:12:10.470Z,99901.22
2022-08-07T12:14:55.371Z,99907.78
2022-08-07T12:17:38.656Z,99905.56
2022-08-07T12:20:19.991Z,99914.72
2022-08-07T12:23:14.553Z,99920.38
2022-08-07T12:26:03.066Z,99926.38
2022-08-07T12:28:52.829Z,99917.31
2022-08-07T12:32:02.018Z,99924.91
2022-08-07T12:34:25.886Z,99928.31
2022-08-07T12:36:56.497Z,99930.75
2022-08-07T12:39:44.272Z,99917.84
2022-08-07T12:42:27.160Z,99918.22
2022-08-07T12:44:58.569Z,99912.25
2022-08-07T12:47:46.042Z,99904.69
2022-08-07T12:50:34.268Z,99904.25
2022-08-07T12:54:02.819Z,99907.63
2022-08-07T12:56:28.139Z,99913.38
2022-08-07T12:58:56.950Z,99911.16
2022-08-07T13:01:38.838Z,99916.53
2022-08-07T13:04:34.253Z,99914.59
2022-08-07T13:08:12.379Z,99915.06
2022-08-07T13:10:51.620Z,99914.72
2022-08-07T13:13:48.579Z,99904.56
2022-08-07T13:16:36.623Z,99909.00
2022-08-07T13:19:18.175Z,99898.97
2022-08-07T13:22:00.603Z,99896.38
2022-08-07T13:24:54.025Z,99898.03
2022-08-07T13:28:11.617Z,99893.19
2022-08-07T13:30:41.446Z,99890.00
2022-08-07T13:34:32.595Z,99886.44
2022-08-07T13:36:28.324Z,99889.19
2022-08-07T13:39:01.869Z,99897.44
2022-08-07T13:41:41.301Z,99893.09
2022-08-07T13:44:13.027Z,99891.03
2022-08-07T13:46:49.560Z,99882.41
2022-08-07T13:50:35.744Z,99886.59
2022-08-07T13:52:30.501Z,99884.78
2022-08-07T13:55:26.700Z,99880.31
2022-08-07T13:58:06.108Z,99888.75
2022-08-07T14:00:50.511Z,99887.03
2022-08-07T14:03:29.022Z,99884.25
2022-08-07T14:05:57.382Z,99875.50
2022-08-07T14:08:28.194Z,99888.06
2022-08-07T14:11:14.344Z,99885.16
2022-08-07T14:13:54.144Z,99889.31
2022-08-07T14:16:27.285Z,99883.38
2022-08-07T14:19:06.156Z,99893.59
2022-08-07T14:22:04.222Z,99891.38
2022-08-07T14:24:48.448Z,99899.16
2022-08-07T14:28:10.608Z,99894.88
2022-08-07T14:30:12.667Z,99901.81
2022-08-07T14:32:43.092Z,99901.09
2022-08-07T14:35:43.359Z,99901.13
2022-08-07T14:38:26.665Z,99898.13
2022-08-07T14:41:04.289Z,99893.44
2022-08-07T14:43:57.455Z,99889.66
2022-08-07T14:46:35.822Z,99890.09
2022-08-07T14:49:17.252Z,99891.31
2022-08-07T14:52:03.820Z,99891.72
2022-08-07T14:54:42.919Z,99893.38
2022-08-07T14:57:11.640Z,99894.56
2022-08-07T15:00:05.353Z,99892.22
2022-08-07T15:02:39.069Z,99890.25
2022-08-07T15:05:20.033Z,99892.28
2022-08-07T15:07:54.826Z,99883.63
2022-08-07T15:10:29.898Z,99884.78
2022-08-07T15:13:11.626Z,99889.16
2022-08-07T15:15:42.813Z,99892.84
2022-08-07T15:18:28.478Z,99889.31
2022-08-07T15:25:15.717Z,99893.44
2022-08-07T15:27:05.670Z,99887.53
2022-08-07T15:30:10.333Z,99887.16
2022-08-07T15:32:51.064Z,99882.91
2022-08-07T15:38:30.011Z,99881.72
2022-08-07T15:44:03.212Z,99871.38
2022-08-07T15:46:38.601Z,99879.94
2022-08-07T15:52:13.652Z,99876.81
2022-08-07T15:54:42.806Z,99876.72
2022-08-07T15:57:39.603Z,99893.78
2022-08-07T16:00:31.469Z,99894.06
2022-08-07T16:03:01.768Z,99888.34
2022-08-07T16:05:36.945Z,99898.72
2022-08-07T16:08:32.501Z,99914.09
2022-08-07T16:11:27.049Z,99918.13
2022-08-07T16:14:11.773Z,99919.38
2022-08-07T16:16:57.192Z,99932.06
2022-08-07T16:19:42.949Z,99930.53
2022-08-07T16:22:37.911Z,99935.38
2022-08-07T16:25:23.299Z,99942.44
2022-08-07T16:30:06.977Z,99944.09
2022-08-07T16:31:02.671Z,99944.09
2022-08-07T16:34:01.472Z,99955.16
2022-08-07T16:37:02.820Z,99970.22
2022-08-07T16:40:05.583Z,99978.19
2022-08-07T16:42:36.785Z,99975.88
2022-08-07T16:46:21.140Z,99974.72
2022-08-07T16:48:37.669Z,99976.75
2022-08-07T16:52:01.789Z,99980.75
2022-08-07T16:54:32.765Z,99980.38
2022-08-07T16:57:15.409Z,99987.97
2022-08-07T16:59:52.049Z,99986.41
2022-08-07T17:03:04.942Z,99988.75
2022-08-07T17:06:26.602Z,99988.81
2022-08-07T17:09:04.354Z,99990.41
2022-08-07T17:12:01.311Z,99989.69
2022-08-07T17:14:41.195Z,99994.41
2022-08-07T17:17:45.886Z,99995.25
2022-08-07T17:20:20.672Z,99997.66
2022-08-07T17:23:00.269Z,99999.19
2022-08-07T17:25:51.336Z,100005.53
2022-08-07T17:28:24.663Z,100011.03
2022-08-07T17:31:18.076Z,100013.38
2022-08-07T17:34:17.938Z,100017.03
2022-08-07T17:36:59.765Z,100019.50
2022-08-07T17:40:05.550Z,100023.91
2022-08-07T17:42:36.321Z,100031.41
2022-08-07T17:45:40.025Z,100030.19
2022-08-07T17:48:30.875Z,100029.47
2022-08-07T17:51:21.670Z,100033.03
2022-08-07T17:54:13.417Z,100049.19
2022-08-07T17:57:19.024Z,100057.09
2022-08-07T17:59:58.194Z,100059.88
2022-08-07T18:02:56.383Z,100063.44
2022-08-07T18:06:02.910Z,100072.94
2022-08-07T18:09:01.121Z,100080.81
2022-08-07T18:12:17.773Z,100083.19
2022-08-07T18:15:08.753Z,100089.44
2022-08-07T18:18:46.422Z,100080.84
2022-08-07T18:21:07.007Z,100075.72
2022-08-07T18:23:43.611Z,100083.94
2022-08-07T18:26:40.697Z,100086.28
2022-08-07T18:30:07.623Z,100093.34
2022-08-07T18:32:28.331Z,100089.44
2022-08-07T18:35:19.333Z,100080.78
2022-08-07T18:38:57.455Z,100091.84
2022-08-07T18:40:56.180Z,100097.28
2022-08-07T18:43:49.093Z,100090.22
2022-08-07T18:46:27.531Z,100096.53
2022-08-07T18:50:32.402Z,100091.84
2022-08-07T18:52:25.647Z,100092.56
2022-08-07T18:54:56.370Z,100093.34
2022-08-07T18:57:44.633Z,100102.78
2022-08-07T19:03:59.051Z,100100.78
2022-08-07T19:06:48.191Z,100100.00
2022-08-07T19:09:55.614Z,100112.16
2022-08-07T19:16:05.526Z,100106.25
2022-08-07T19:19:02.659Z,100101.88
2022-08-07T19:22:04.320Z,100106.97
2022-08-07T19:24:54.417Z,100099.13
2022-08-07T19:28:57.147Z,100105.44
2022-08-07T19:31:03.180Z,100104.63
2022-08-07T19:33:39.203Z,100105.44
2022-08-07T19:36:36.180Z,100103.47
2022-08-07T19:39:09.154Z,100114.47
2022-08-07T19:44:48.753Z,100108.13
2022-08-07T19:47:36.492Z,100109.69
2022-08-07T19:50:43.847Z,100113.97
2022-08-07T19:54:34.120Z,100109.22
2022-08-07T19:58:02.406Z,100114.25
2022-08-07T19:59:42.771Z,100126.00
2022-08-07T20:02:30.888Z,100124.78
2022-08-07T20:05:19.865Z,100124.38
2022-08-07T20:10:55.640Z,100129.13
2022-08-07T20:13:42.298Z,100128.22
2022-08-07T20:16:35.910Z,100128.22
2022-08-07T20:19:15.256Z,100128.22
2022-08-07T20:22:10.382Z,100134.44
2022-08-07T20:25:01.148Z,100122.56
2022-08-07T20:27:46.567Z,100122.50
2022-08-07T20:30:36.068Z,100127.13
2022-08-07T20:33:36.625Z,100127.19
2022-08-07T20:36:13.344Z,100133.34
2022-08-07T20:39:00.823Z,100135.59
2022-08-07T20:44:49.586Z,100138.34
2022-08-07T20:47:56.330Z,100140.34
2022-08-07T20:50:40.883Z,100131.22
2022-08-07T20:53:25.916Z,100140.59
2022-08-07T20:56:26.989Z,100142.38
2022-08-07T21:00:05.419Z,100140.88
2022-08-07T21:02:30.864Z,100155.75
2022-08-07T21:05:16.228Z,100144.78
2022-08-07T21:07:49.656Z,100155.75
2022-08-07T21:10:25.244Z,100144.06
2022-08-07T21:13:11.050Z,100154.16
2022-08-07T21:16:00.673Z,100154.59
2022-08-07T21:18:41.297Z,100163.53
2022-08-07T21:21:49.149Z,100159.91
2022-08-07T21:24:48.021Z,100159.97
2022-08-07T21:27:39.873Z,100156.44
2022-08-07T21:30:36.915Z,100156.78
2022-08-07T21:33:41.410Z,100158.84
2022-08-07T21:36:31.819Z,100155.56
2022-08-07T21:39:46.260Z,100169.56
2022-08-07T21:42:42.204Z,100169.09
2022-08-07T21:46:05.331Z,100168.16
2022-08-07T21:48:55.782Z,100168.50
2022-08-07T21:51:32.362Z,100172.75
2022-08-07T21:54:26.399Z,100167.44
2022-08-07T21:57:16.087Z,100174.88
2022-08-07T22:00:08.956Z,100168.91
2022-08-07T22:02:50.990Z,100177.72
2022-08-07T22:05:45.841Z,100189.06
2022-08-07T22:08:18.883Z,100189.22
2022-08-07T22:11:05.867Z,100182.63
2022-08-07T22:13:51.964Z,100191.69
2022-08-07T22:16:46.806Z,100190.56
2022-08-07T22:19:30.088Z,100192.59
2022-08-07T22:22:21.152Z,100199.84
2022-08-07T22:25:12.777Z,100198.22
2022-08-07T22:28:07.651Z,100204.44
2022-08-07T22:31:05.104Z,100198.88
2022-08-07T22:33:57.038Z,100203.88
2022-08-07T22:36:56.163Z,100200.13
2022-08-07T22:39:53.057Z,100202.28
2022-08-07T22:42:33.301Z,100208.38
2022-08-07T22:45:11.104Z,100207.94
2022-08-07T22:54:14.976Z,100211.75
2022-08-07T22:56:58.651Z,100216.44
2022-08-07T22:59:43.061Z,100214.97
2022-08-07T23:02:33.851Z,100214.13
2022-08-07T23:06:09.037Z,100220.25
2022-08-07T23:08:54.296Z,100221.69
2022-08-07T23:14:25.045Z,100218.09
2022-08-07T23:17:15.884Z,100218.38
2022-08-07T23:20:11.751Z,100229.47
2022-08-07T23:23:02.415Z,100227.88
2022-08-07T23:28:29.448Z,100229.31
2022-08-07T23:31:42.562Z,100234.94
2022-08-07T23:37:20.449Z,100234.81
2022-08-07T23:40:09.365Z,100240.38
2022-08-07T23:46:10.948Z,100234.59
2022-08-07T23:49:15.481Z,100234.63
2022-08-07T23:52:59.617Z,100233.91
2022-08-07T23:55:53.601Z,100240.22
2022-08-07T23:58:55.516Z,100231.66
